Time,TemperatureF,DewpointF,PressureIn,WindDirection,WindDirectionDegrees,WindSpeedMPH,WindSpeedGustMPH,Humidity,HourlyPrecipIn,Conditions,Clouds,dailyrainin,SolarRadiationWatts/m^2,SoftwareType,DateUTC
2013-04-20 00:08:00,41.8,35.0,29.64,NNE,27,0.0,0.0,78,0.00,,,0.00,0,weatherlink.com 1.10,2013-04-20 04:08:00,
2013-04-20 00:23:00,41.9,35.0,29.64,NNE,23,0.0,0.0,77,0.00,,,0.00,0,weatherlink.com 1.10,2013-04-20 04:23:00,
2013-04-20 00:38:00,41.9,35.0,29.64,NNW,328,0.0,0.0,76,0.00,,,0.00,0,weatherlink.com 1.10,2013-04-20 04:38:00,
2013-04-20 00:53:00,42.1,35.0,29.64,North,5,0.0,0.0,75,0.00,,,0.00,0,weatherlink.com 1.10,2013-04-20 04:53:00,
2013-04-20 01:08:00,42.2,34.0,29.65,North,355,0.0,0.0,74,0.00,,,0.00,0,weatherlink.com 1.10,2013-04-20 05:08:00,
2013-04-20 01:23:00,42.1,34.0,29.66,SW,225,0.0,0.0,74,0.00,,,0.00,0,weatherlink.com 1.10,2013-04-20 05:23:00,
2013-04-20 01:38:00,42.0,34.0,29.64,North,5,0.0,0.0,74,0.00,,,0.00,0,weatherlink.com 1.10,2013-04-20 05:38:00,
2013-04-20 02:08:00,41.7,34.0,29.63,North,5,0.0,0.0,75,0.00,,,0.00,0,weatherlink.com 1.10,2013-04-20 06:08:00,
2013-04-20 02:23:00,41.6,34.0,29.63,NW,306,0.0,0.0,75,0.00,,,0.00,0,weatherlink.com 1.10,2013-04-20 06:23:00,
2013-04-20 02:38:00,41.6,34.0,29.64,West,276,0.0,0.0,74,0.00,,,0.00,0,weatherlink.com 1.10,2013-04-20 06:38:00,
2013-04-20 02:53:00,41.7,34.0,29.64,NNW,339,0.0,0.0,74,0.00,,,0.00,0,weatherlink.com 1.10,2013-04-20 06:53:00,
2013-04-20 03:08:00,41.7,34.0,29.63,West,271,0.0,0.0,73,0.00,,,0.00,0,weatherlink.com 1.10,2013-04-20 07:08:00,
2013-04-20 03:23:00,41.6,33.0,29.63,NNE,23,0.0,0.0,72,0.00,,,0.00,0,weatherlink.com 1.10,2013-04-20 07:23:00,
2013-04-20 03:38:00,41.6,34.0,29.63,NNE,17,0.0,0.0,73,0.00,,,0.00,0,weatherlink.com 1.10,2013-04-20 07:38:00,
2013-04-20 03:53:00,41.6,33.0,29.63,NNW,328,0.0,0.0,72,0.00,,,0.00,0,weatherlink.com 1.10,2013-04-20 07:53:00,
2013-04-20 04:08:00,41.6,33.0,29.63,NNW,342,0.0,0.0,72,0.00,,,0.00,0,weatherlink.com 1.10,2013-04-20 08:08:00,
2013-04-20 04:23:00,41.5,32.0,29.64,NNE,32,0.0,0.0,70,0.00,,,0.00,0,weatherlink.com 1.10,2013-04-20 08:23:00,
2013-04-20 04:38:00,41.5,33.0,29.64,NNE,32,0.0,0.0,72,0.00,,,0.00,0,weatherlink.com 1.10,2013-04-20 08:38:00,
2013-04-20 04:53:00,41.5,33.0,29.64,NNE,13,0.0,0.0,71,0.00,,,0.00,0,weatherlink.com 1.10,2013-04-20 08:53:00,
2013-04-20 05:08:00,41.6,32.0,29.65,NNE,19,0.0,0.0,70,0.00,,,0.00,0,weatherlink.com 1.10,2013-04-20 09:08:00,
2013-04-20 05:23:00,41.5,32.0,29.65,NNE,15,0.0,0.0,70,0.00,,,0.00,0,weatherlink.com 1.10,2013-04-20 09:23:00,
2013-04-20 05:39:00,41.5,32.0,29.66,NE,49,0.0,0.0,70,0.00,,,0.00,0,weatherlink.com 1.10,2013-04-20 09:39:00,
2013-04-20 05:53:00,41.3,33.0,29.65,WNW,292,0.0,0.0,71,0.00,,,0.00,0,weatherlink.com 1.10,2013-04-20 09:53:00,
2013-04-20 06:08:00,41.3,33.0,29.65,North,355,0.0,0.0,71,0.00,,,0.00,0,weatherlink.com 1.10,2013-04-20 10:08:00,
2013-04-20 06:23:00,41.0,32.0,29.66,ENE,58,0.0,0.0,71,0.00,,,0.00,7,weatherlink.com 1.10,2013-04-20 10:23:00,
2013-04-20 06:38:00,40.7,32.0,29.66,North,355,0.0,0.0,70,0.00,,,0.00,14,weatherlink.com 1.10,2013-04-20 10:38:00,
2013-04-20 06:53:00,40.7,32.0,29.67,WNW,296,0.0,0.0,70,0.00,,,0.00,18,weatherlink.com 1.10,2013-04-20 10:53:00,
2013-04-20 07:08:00,40.5,31.0,29.67,North,9,0.0,0.0,70,0.00,,,0.00,35,weatherlink.com 1.10,2013-04-20 11:08:00,
2013-04-20 07:23:00,40.9,32.0,29.68,NE,36,0.0,0.0,71,0.00,,,0.00,104,weatherlink.com 1.10,2013-04-20 11:23:00,
2013-04-20 07:38:00,41.0,32.0,29.69,NE,45,0.0,0.0,71,0.00,,,0.00,35,weatherlink.com 1.10,2013-04-20 11:38:00,
2013-04-20 07:53:00,41.1,32.0,29.69,NW,316,0.0,0.0,69,0.00,,,0.00,125,weatherlink.com 1.10,2013-04-20 11:53:00,
2013-04-20 08:08:00,41.2,31.0,29.69,NE,38,0.0,0.0,68,0.00,,,0.00,128,weatherlink.com 1.10,2013-04-20 12:08:00,
2013-04-20 08:23:00,41.4,31.0,29.70,North,355,0.0,0.0,67,0.00,,,0.00,176,weatherlink.com 1.10,2013-04-20 12:23:00,
2013-04-20 08:38:00,41.4,32.0,29.70,NE,48,0.0,0.0,69,0.00,,,0.00,160,weatherlink.com 1.10,2013-04-20 12:38:00,
2013-04-20 08:53:00,42.0,32.0,29.70,NNE,25,0.0,0.0,69,0.00,,,0.00,236,weatherlink.com 1.10,2013-04-20 12:53:00,
2013-04-20 09:08:00,41.6,32.0,29.70,NNE,19,0.0,0.0,68,0.00,,,0.00,120,weatherlink.com 1.10,2013-04-20 13:08:00,
2013-04-20 09:23:00,41.1,32.0,29.72,North,5,0.0,0.0,71,0.00,,,0.00,218,weatherlink.com 1.10,2013-04-20 13:23:00,
2013-04-20 09:38:00,42.4,34.0,29.72,NNE,31,0.0,0.0,71,0.00,,,0.00,353,weatherlink.com 1.10,2013-04-20 13:38:00,
2013-04-20 09:53:00,42.8,35.0,29.72,WSW,249,0.0,0.0,74,0.00,,,0.00,740,weatherlink.com 1.10,2013-04-20 13:53:00,
2013-04-20 10:08:00,43.7,34.0,29.72,WSW,257,0.0,0.0,70,0.00,,,0.00,731,weatherlink.com 1.10,2013-04-20 14:08:00,
2013-04-20 10:23:00,44.6,33.0,29.72,NE,40,0.0,0.0,65,0.00,,,0.00,392,weatherlink.com 1.10,2013-04-20 14:23:00,
2013-04-20 10:38:00,43.7,32.0,29.73,NNW,340,0.0,0.0,64,0.00,,,0.00,185,weatherlink.com 1.10,2013-04-20 14:38:00,
2013-04-20 10:54:00,43.9,31.0,29.74,NNW,330,0.0,0.0,60,0.00,,,0.00,921,weatherlink.com 1.10,2013-04-20 14:54:00,
2013-04-20 11:09:00,44.2,32.0,29.75,NE,35,0.0,0.0,63,0.00,,,0.00,410,weatherlink.com 1.10,2013-04-20 15:09:00,
2013-04-20 11:24:00,44.7,31.0,29.75,NNE,15,0.0,0.0,60,0.00,,,0.00,967,weatherlink.com 1.10,2013-04-20 15:24:00,
2013-04-20 11:39:00,44.9,30.0,29.75,NNE,23,0.0,0.0,57,0.00,,,0.00,893,weatherlink.com 1.10,2013-04-20 15:39:00,
2013-04-20 11:54:00,43.9,29.0,29.77,NE,50,0.0,0.0,57,0.00,,,0.00,162,weatherlink.com 1.10,2013-04-20 15:54:00,
2013-04-20 12:09:00,38.1,32.0,29.80,NNE,25,0.0,0.0,79,0.00,,,0.00,104,weatherlink.com 1.10,2013-04-20 16:09:00,
2013-04-20 12:24:00,36.4,32.0,29.82,NNE,19,0.0,0.0,85,0.01,,,0.01,178,weatherlink.com 1.10,2013-04-20 16:24:00,
2013-04-20 12:39:00,37.3,33.0,29.82,North,9,0.0,0.0,85,0.01,,,0.01,522,weatherlink.com 1.10,2013-04-20 16:39:00,
2013-04-20 12:56:00,40.0,34.0,29.82,WNW,286,0.0,0.0,78,0.01,,,0.01,789,weatherlink.com 1.10,2013-04-20 16:56:00,
2013-04-20 13:09:00,42.6,33.0,29.83,NNE,32,0.0,0.0,70,0.01,,,0.01,990,weatherlink.com 1.10,2013-04-20 17:09:00,
2013-04-20 13:24:00,41.0,28.0,29.83,NNE,32,0.0,0.0,61,0.00,,,0.01,338,weatherlink.com 1.10,2013-04-20 17:24:00,
2013-04-20 13:39:00,41.4,27.0,29.84,ENE,65,0.0,0.0,56,0.00,,,0.01,165,weatherlink.com 1.10,2013-04-20 17:39:00,
2013-04-20 13:54:00,39.8,27.0,29.86,WSW,246,0.0,0.0,60,0.00,,,0.01,123,weatherlink.com 1.10,2013-04-20 17:54:00,
2013-04-20 14:09:00,39.5,29.0,29.87,NNE,26,0.0,0.0,65,0.00,,,0.01,237,weatherlink.com 1.10,2013-04-20 18:09:00,
2013-04-20 14:24:00,39.7,29.0,29.88,NNW,347,0.0,0.0,65,0.01,,,0.02,406,weatherlink.com 1.10,2013-04-20 18:24:00,
2013-04-20 14:39:00,39.8,28.0,29.89,NNW,345,0.0,0.0,63,0.01,,,0.02,388,weatherlink.com 1.10,2013-04-20 18:39:00,
2013-04-20 14:54:00,39.8,27.0,29.89,NNE,22,0.0,0.0,60,0.01,,,0.02,359,weatherlink.com 1.10,2013-04-20 18:54:00,
2013-04-20 15:09:00,39.4,26.0,29.90,NW,309,0.0,0.0,60,0.01,,,0.02,114,weatherlink.com 1.10,2013-04-20 19:09:00,
2013-04-20 15:24:00,38.3,26.0,29.92,NNE,26,0.0,0.0,62,0.00,,,0.02,88,weatherlink.com 1.10,2013-04-20 19:24:00,
2013-04-20 15:39:00,38.5,27.0,29.92,NNW,329,0.0,0.0,63,0.00,,,0.02,128,weatherlink.com 1.10,2013-04-20 19:39:00,
2013-04-20 15:54:00,38.5,26.0,29.93,NNE,28,0.0,0.0,61,0.00,,,0.02,322,weatherlink.com 1.10,2013-04-20 19:54:00,
2013-04-20 16:09:00,39.5,26.0,29.94,North,9,0.0,0.0,60,0.00,,,0.02,190,weatherlink.com 1.10,2013-04-20 20:09:00,
2013-04-20 16:24:00,38.5,27.0,29.95,NNE,27,0.0,0.0,63,0.00,,,0.02,207,weatherlink.com 1.10,2013-04-20 20:24:00,
2013-04-20 16:39:00,38.5,26.0,29.96,NE,38,0.0,0.0,60,0.00,,,0.02,72,weatherlink.com 1.10,2013-04-20 20:39:00,
2013-04-20 16:54:00,37.6,26.0,29.97,NNE,32,0.0,0.0,64,0.00,,,0.02,69,weatherlink.com 1.10,2013-04-20 20:54:00,
2013-04-20 17:09:00,37.3,27.0,29.99,NNE,32,0.0,0.0,66,0.00,,,0.02,165,weatherlink.com 1.10,2013-04-20 21:09:00,
2013-04-20 17:24:00,37.5,26.0,30.00,NNE,33,0.0,0.0,64,0.00,,,0.02,46,weatherlink.com 1.10,2013-04-20 21:24:00,
2013-04-20 17:40:00,35.9,27.0,30.01,NE,55,0.0,0.0,70,0.00,,,0.02,56,weatherlink.com 1.10,2013-04-20 21:40:00,
2013-04-20 17:55:00,36.4,26.0,30.02,NNE,26,0.0,0.0,67,0.00,,,0.02,49,weatherlink.com 1.10,2013-04-20 21:55:00,
2013-04-20 18:10:00,36.9,24.0,30.03,NNW,348,0.0,0.0,59,0.00,,,0.02,32,weatherlink.com 1.10,2013-04-20 22:10:00,
2013-04-20 18:25:00,36.8,22.0,30.04,NE,49,0.0,0.0,55,0.00,,,0.02,33,weatherlink.com 1.10,2013-04-20 22:25:00,
2013-04-20 18:40:00,36.1,21.0,30.06,NNE,17,0.0,0.0,55,0.00,,,0.02,30,weatherlink.com 1.10,2013-04-20 22:40:00,
2013-04-20 18:55:00,35.7,20.0,30.07,NNE,20,0.0,0.0,53,0.00,,,0.02,35,weatherlink.com 1.10,2013-04-20 22:55:00,
2013-04-20 19:10:00,35.6,20.0,30.09,ENE,60,0.0,0.0,54,0.00,,,0.02,12,weatherlink.com 1.10,2013-04-20 23:10:00,
2013-04-20 19:25:00,35.1,20.0,30.10,NW,309,0.0,0.0,54,0.00,,,0.02,9,weatherlink.com 1.10,2013-04-20 23:25:00,
2013-04-20 19:40:00,34.7,19.0,30.12,NE,43,0.0,0.0,54,0.00,,,0.02,0,weatherlink.com 1.10,2013-04-20 23:40:00,
2013-04-20 19:55:00,34.6,20.0,30.13,NE,36,0.0,0.0,55,0.00,,,0.02,0,weatherlink.com 1.10,2013-04-20 23:55:00,
2013-04-20 20:12:00,34.2,20.0,30.15,North,355,0.0,0.0,56,0.00,,,0.02,0,weatherlink.com 1.10,2013-04-21 00:12:00,
2013-04-20 20:25:00,34.0,20.0,30.16,NNE,32,0.0,0.0,57,0.00,,,0.02,0,weatherlink.com 1.10,2013-04-21 00:25:00,
2013-04-20 20:40:00,33.9,20.0,30.18,NE,38,0.0,0.0,58,0.00,,,0.02,0,weatherlink.com 1.10,2013-04-21 00:40:00,
2013-04-20 20:55:00,33.6,20.0,30.19,North,9,0.0,0.0,59,0.00,,,0.02,0,weatherlink.com 1.10,2013-04-21 00:55:00,
2013-04-20 21:10:00,33.4,21.0,30.21,NE,40,0.0,0.0,60,0.00,,,0.02,0,weatherlink.com 1.10,2013-04-21 01:10:00,
2013-04-20 21:25:00,33.3,21.0,30.22,NE,37,0.0,0.0,61,0.00,,,0.02,0,weatherlink.com 1.10,2013-04-21 01:25:00,
2013-04-20 21:40:00,33.2,21.0,30.23,NE,44,0.0,0.0,62,0.00,,,0.02,0,weatherlink.com 1.10,2013-04-21 01:40:00,
2013-04-20 21:55:00,33.1,21.0,30.24,NE,46,0.0,0.0,61,0.00,,,0.02,0,weatherlink.com 1.10,2013-04-21 01:55:00,
2013-04-20 22:10:00,33.0,20.0,30.25,NE,40,0.0,0.0,60,0.00,,,0.02,0,weatherlink.com 1.10,2013-04-21 02:10:00,
2013-04-20 22:25:00,32.6,20.0,30.26,NNE,22,0.0,0.0,60,0.00,,,0.02,0,weatherlink.com 1.10,2013-04-21 02:25:00,
2013-04-20 22:40:00,32.5,20.0,30.26,NE,40,0.0,0.0,60,0.00,,,0.02,0,weatherlink.com 1.10,2013-04-21 02:40:00,
2013-04-20 22:56:00,31.5,22.0,30.28,East,85,0.0,0.0,69,0.00,,,0.02,0,weatherlink.com 1.10,2013-04-21 02:56:00,
2013-04-20 23:11:00,30.3,23.0,30.29,ENE,62,0.0,0.0,74,0.00,,,0.02,0,weatherlink.com 1.10,2013-04-21 03:11:00,
2013-04-20 23:26:00,29.9,22.0,30.30,NE,44,0.0,0.0,73,0.00,,,0.02,0,weatherlink.com 1.10,2013-04-21 03:26:00,
2013-04-20 23:41:00,29.7,22.0,30.31,NE,53,0.0,0.0,74,0.00,,,0.02,0,weatherlink.com 1.10,2013-04-21 03:41:00,
2013-04-20 23:56:00,30.3,18.0,30.32,ESE,110,0.0,0.0,61,0.00,,,0.02,0,weatherlink.com 1.10,2013-04-21 03:56:00,